sensor_id;sensor_type;location;lat;lon;timestamp;P1;durP1;ratioP1;P2;durP2;ratioP2
35306;SDS011;21420;52.196;21.416;2023-01-08T00:01:13;46.02;;;29.45;;
35306;SDS011;21420;52.196;21.416;2023-01-08T00:03:40;45.90;;;28.62;;
35306;SDS011;21420;52.196;21.416;2023-01-08T00:06:09;42.93;;;30.10;;
35306;SDS011;21420;52.196;21.416;2023-01-08T00:08:40;43.73;;;30.20;;
35306;SDS011;21420;52.196;21.416;2023-01-08T00:11:07;46.75;;;28.92;;
35306;SDS011;21420;52.196;21.416;2023-01-08T00:13:33;44.88;;;29.98;;
35306;SDS011;21420;52.196;21.416;2023-01-08T00:16:09;42.73;;;29.25;;
35306;SDS011;21420;52.196;21.416;2023-01-08T00:18:39;44.15;;;29.42;;
35306;SDS011;21420;52.196;21.416;2023-01-08T00:21:06;45.52;;;28.85;;
35306;SDS011;21420;52.196;21.416;2023-01-08T00:23:32;45.10;;;29.67;;
35306;SDS011;21420;52.196;21.416;2023-01-08T00:25:59;47.00;;;30.27;;
35306;SDS011;21420;52.196;21.416;2023-01-08T00:28:27;45.80;;;29.80;;
35306;SDS011;21420;52.196;21.416;2023-01-08T00:30:54;44.95;;;30.48;;
35306;SDS011;21420;52.196;21.416;2023-01-08T00:33:20;46.77;;;30.43;;
35306;SDS011;21420;52.196;21.416;2023-01-08T00:35:46;42.08;;;28.12;;
35306;SDS011;21420;52.196;21.416;2023-01-08T00:38:13;46.25;;;29.15;;
35306;SDS011;21420;52.196;21.416;2023-01-08T00:40:39;44.13;;;28.67;;
35306;SDS011;21420;52.196;21.416;2023-01-08T00:43:05;46.55;;;29.32;;
35306;SDS011;21420;52.196;21.416;2023-01-08T00:45:32;44.10;;;28.55;;
35306;SDS011;21420;52.196;21.416;2023-01-08T00:47:59;45.33;;;30.08;;
35306;SDS011;21420;52.196;21.416;2023-01-08T00:50:26;48.52;;;31.37;;
35306;SDS011;21420;52.196;21.416;2023-01-08T00:52:52;45.50;;;29.70;;
35306;SDS011;21420;52.196;21.416;2023-01-08T00:55:18;48.13;;;30.95;;
35306;SDS011;21420;52.196;21.416;2023-01-08T00:57:45;42.88;;;29.23;;
35306;SDS011;21420;52.196;21.416;2023-01-08T01:00:12;47.58;;;28.98;;
35306;SDS011;21420;52.196;21.416;2023-01-08T01:02:40;46.25;;;29.72;;
35306;SDS011;21420;52.196;21.416;2023-01-08T01:05:08;45.17;;;29.70;;
35306;SDS011;21420;52.196;21.416;2023-01-08T01:07:37;45.67;;;29.70;;
35306;SDS011;21420;52.196;21.416;2023-01-08T01:10:03;49.03;;;30.70;;
35306;SDS011;21420;52.196;21.416;2023-01-08T01:12:30;44.20;;;30.23;;
35306;SDS011;21420;52.196;21.416;2023-01-08T01:14:57;46.63;;;29.32;;
35306;SDS011;21420;52.196;21.416;2023-01-08T01:17:23;47.38;;;30.00;;
35306;SDS011;21420;52.196;21.416;2023-01-08T01:19:49;44.90;;;28.85;;
35306;SDS011;21420;52.196;21.416;2023-01-08T01:22:15;42.75;;;26.45;;
35306;SDS011;21420;52.196;21.416;2023-01-08T01:24:41;42.60;;;27.55;;
35306;SDS011;21420;52.196;21.416;2023-01-08T01:27:07;42.70;;;28.05;;
35306;SDS011;21420;52.196;21.416;2023-01-08T01:29:34;45.25;;;29.25;;
35306;SDS011;21420;52.196;21.416;2023-01-08T01:32:00;47.60;;;28.35;;
35306;SDS011;21420;52.196;21.416;2023-01-08T01:34:26;43.42;;;28.10;;
35306;SDS011;21420;52.196;21.416;2023-01-08T01:36:52;50.28;;;28.73;;
35306;SDS011;21420;52.196;21.416;2023-01-08T01:39:18;46.68;;;29.12;;
35306;SDS011;21420;52.196;21.416;2023-01-08T01:41:46;45.03;;;27.17;;
35306;SDS011;21420;52.196;21.416;2023-01-08T01:50:01;45.80;;;27.95;;
35306;SDS011;21420;52.196;21.416;2023-01-08T01:52:36;42.48;;;26.50;;
35306;SDS011;21420;52.196;21.416;2023-01-08T01:55:21;45.20;;;28.42;;
35306;SDS011;21420;52.196;21.416;2023-01-08T01:57:49;46.95;;;29.12;;
35306;SDS011;21420;52.196;21.416;2023-01-08T02:00:20;42.15;;;26.25;;
35306;SDS011;21420;52.196;21.416;2023-01-08T02:02:47;44.08;;;26.33;;
35306;SDS011;21420;52.196;21.416;2023-01-08T02:05:15;41.00;;;25.43;;
35306;SDS011;21420;52.196;21.416;2023-01-08T02:07:55;38.70;;;25.17;;
35306;SDS011;21420;52.196;21.416;2023-01-08T02:13:23;44.30;;;26.00;;
35306;SDS011;21420;52.196;21.416;2023-01-08T02:16:36;45.73;;;27.05;;
35306;SDS011;21420;52.196;21.416;2023-01-08T02:18:49;43.35;;;27.50;;
35306;SDS011;21420;52.196;21.416;2023-01-08T02:21:30;41.92;;;26.37;;
35306;SDS011;21420;52.196;21.416;2023-01-08T02:29:21;41.20;;;24.57;;
35306;SDS011;21420;52.196;21.416;2023-01-08T02:34:16;34.80;;;22.93;;
35306;SDS011;21420;52.196;21.416;2023-01-08T02:36:49;39.33;;;23.87;;
35306;SDS011;21420;52.196;21.416;2023-01-08T02:48:01;33.15;;;20.92;;
35306;SDS011;21420;52.196;21.416;2023-01-08T02:53:22;31.65;;;19.52;;
35306;SDS011;21420;52.196;21.416;2023-01-08T02:55:54;35.00;;;21.23;;
35306;SDS011;21420;52.196;21.416;2023-01-08T02:58:23;32.38;;;20.17;;
35306;SDS011;21420;52.196;21.416;2023-01-08T03:00:54;33.98;;;20.12;;
35306;SDS011;21420;52.196;21.416;2023-01-08T03:03:25;30.02;;;19.30;;
35306;SDS011;21420;52.196;21.416;2023-01-08T03:05:52;34.80;;;20.08;;
35306;SDS011;21420;52.196;21.416;2023-01-08T03:08:36;28.55;;;19.55;;
35306;SDS011;21420;52.196;21.416;2023-01-08T03:11:03;28.30;;;18.80;;
35306;SDS011;21420;52.196;21.416;2023-01-08T03:19:25;30.68;;;17.95;;
35306;SDS011;21420;52.196;21.416;2023-01-08T03:22:09;28.05;;;16.95;;
35306;SDS011;21420;52.196;21.416;2023-01-08T03:24:39;28.27;;;16.17;;
35306;SDS011;21420;52.196;21.416;2023-01-08T03:27:08;31.60;;;18.25;;
35306;SDS011;21420;52.196;21.416;2023-01-08T03:29:38;28.50;;;16.20;;
35306;SDS011;21420;52.196;21.416;2023-01-08T03:32:07;26.20;;;16.52;;
35306;SDS011;21420;52.196;21.416;2023-01-08T03:34:36;24.77;;;16.12;;
35306;SDS011;21420;52.196;21.416;2023-01-08T03:37:05;28.95;;;16.45;;
35306;SDS011;21420;52.196;21.416;2023-01-08T03:39:39;24.35;;;16.10;;
35306;SDS011;21420;52.196;21.416;2023-01-08T03:42:11;23.75;;;15.23;;
35306;SDS011;21420;52.196;21.416;2023-01-08T03:44:39;25.50;;;14.90;;
35306;SDS011;21420;52.196;21.416;2023-01-08T03:47:06;21.00;;;14.05;;
35306;SDS011;21420;52.196;21.416;2023-01-08T03:49:35;23.45;;;13.60;;
35306;SDS011;21420;52.196;21.416;2023-01-08T03:52:03;25.23;;;14.15;;
35306;SDS011;21420;52.196;21.416;2023-01-08T03:54:30;21.05;;;13.25;;
35306;SDS011;21420;52.196;21.416;2023-01-08T03:56:59;20.43;;;13.48;;
35306;SDS011;21420;52.196;21.416;2023-01-08T03:59:25;19.00;;;12.93;;
35306;SDS011;21420;52.196;21.416;2023-01-08T04:01:51;21.85;;;13.28;;
35306;SDS011;21420;52.196;21.416;2023-01-08T04:04:17;23.90;;;13.25;;
35306;SDS011;21420;52.196;21.416;2023-01-08T04:06:43;18.80;;;13.10;;
35306;SDS011;21420;52.196;21.416;2023-01-08T04:09:10;20.75;;;12.50;;
35306;SDS011;21420;52.196;21.416;2023-01-08T04:11:36;21.52;;;13.48;;
35306;SDS011;21420;52.196;21.416;2023-01-08T04:14:02;20.57;;;12.78;;
35306;SDS011;21420;52.196;21.416;2023-01-08T04:16:28;19.67;;;12.78;;
35306;SDS011;21420;52.196;21.416;2023-01-08T04:18:54;17.40;;;12.15;;
35306;SDS011;21420;52.196;21.416;2023-01-08T04:21:20;20.68;;;12.88;;
35306;SDS011;21420;52.196;21.416;2023-01-08T04:23:46;27.45;;;14.53;;
35306;SDS011;21420;52.196;21.416;2023-01-08T04:26:12;19.02;;;12.58;;
35306;SDS011;21420;52.196;21.416;2023-01-08T04:28:39;19.35;;;11.53;;
35306;SDS011;21420;52.196;21.416;2023-01-08T04:31:06;19.67;;;12.13;;
35306;SDS011;21420;52.196;21.416;2023-01-08T04:33:33;18.15;;;11.30;;
35306;SDS011;21420;52.196;21.416;2023-01-08T04:36:00;18.45;;;12.23;;
35306;SDS011;21420;52.196;21.416;2023-01-08T04:38:27;19.57;;;12.00;;
35306;SDS011;21420;52.196;21.416;2023-01-08T04:40:57;16.93;;;11.50;;
35306;SDS011;21420;52.196;21.416;2023-01-08T04:43:25;17.70;;;10.98;;
35306;SDS011;21420;52.196;21.416;2023-01-08T04:45:52;15.43;;;11.08;;
35306;SDS011;21420;52.196;21.416;2023-01-08T04:48:26;18.48;;;11.40;;
35306;SDS011;21420;52.196;21.416;2023-01-08T04:50:56;18.23;;;11.33;;
35306;SDS011;21420;52.196;21.416;2023-01-08T04:53:23;17.73;;;10.65;;
35306;SDS011;21420;52.196;21.416;2023-01-08T04:55:49;17.62;;;10.50;;
35306;SDS011;21420;52.196;21.416;2023-01-08T04:58:15;16.27;;;10.82;;
35306;SDS011;21420;52.196;21.416;2023-01-08T05:00:41;16.93;;;10.48;;
35306;SDS011;21420;52.196;21.416;2023-01-08T05:03:07;17.32;;;10.85;;
35306;SDS011;21420;52.196;21.416;2023-01-08T05:05:35;19.23;;;10.60;;
35306;SDS011;21420;52.196;21.416;2023-01-08T05:08:03;20.50;;;11.55;;
35306;SDS011;21420;52.196;21.416;2023-01-08T05:10:29;17.80;;;11.22;;
35306;SDS011;21420;52.196;21.416;2023-01-08T05:12:59;17.85;;;10.98;;
35306;SDS011;21420;52.196;21.416;2023-01-08T05:15:25;21.97;;;11.55;;
35306;SDS011;21420;52.196;21.416;2023-01-08T05:17:58;15.18;;;11.25;;
35306;SDS011;21420;52.196;21.416;2023-01-08T05:20:26;18.35;;;11.90;;
35306;SDS011;21420;52.196;21.416;2023-01-08T05:22:53;17.77;;;12.10;;
35306;SDS011;21420;52.196;21.416;2023-01-08T05:25:19;16.05;;;11.97;;
35306;SDS011;21420;52.196;21.416;2023-01-08T05:27:46;16.02;;;11.28;;
35306;SDS011;21420;52.196;21.416;2023-01-08T05:30:12;19.07;;;10.93;;
35306;SDS011;21420;52.196;21.416;2023-01-08T05:32:39;19.07;;;12.45;;
35306;SDS011;21420;52.196;21.416;2023-01-08T05:35:06;18.98;;;12.55;;
35306;SDS011;21420;52.196;21.416;2023-01-08T05:37:33;21.00;;;11.40;;
35306;SDS011;21420;52.196;21.416;2023-01-08T05:40:00;17.92;;;11.70;;
35306;SDS011;21420;52.196;21.416;2023-01-08T05:42:26;19.80;;;12.47;;
35306;SDS011;21420;52.196;21.416;2023-01-08T05:44:52;23.90;;;12.80;;
35306;SDS011;21420;52.196;21.416;2023-01-08T05:47:18;25.65;;;13.58;;
35306;SDS011;21420;52.196;21.416;2023-01-08T05:49:44;19.82;;;13.50;;
35306;SDS011;21420;52.196;21.416;2023-01-08T05:52:11;20.57;;;13.88;;
35306;SDS011;21420;52.196;21.416;2023-01-08T05:54:37;19.48;;;13.03;;
35306;SDS011;21420;52.196;21.416;2023-01-08T05:57:03;27.67;;;13.65;;
35306;SDS011;21420;52.196;21.416;2023-01-08T05:59:29;24.10;;;14.00;;
35306;SDS011;21420;52.196;21.416;2023-01-08T06:01:55;23.18;;;15.00;;
35306;SDS011;21420;52.196;21.416;2023-01-08T06:04:23;24.07;;;14.80;;
35306;SDS011;21420;52.196;21.416;2023-01-08T06:06:50;32.83;;;17.75;;
35306;SDS011;21420;52.196;21.416;2023-01-08T06:09:16;35.38;;;20.50;;
35306;SDS011;21420;52.196;21.416;2023-01-08T06:11:42;34.78;;;19.57;;
35306;SDS011;21420;52.196;21.416;2023-01-08T06:14:08;25.08;;;15.25;;
35306;SDS011;21420;52.196;21.416;2023-01-08T06:16:34;23.60;;;15.63;;
35306;SDS011;21420;52.196;21.416;2023-01-08T06:19:01;23.80;;;16.00;;
35306;SDS011;21420;52.196;21.416;2023-01-08T06:21:27;23.57;;;15.38;;
35306;SDS011;21420;52.196;21.416;2023-01-08T06:23:54;27.82;;;17.23;;
35306;SDS011;21420;52.196;21.416;2023-01-08T06:26:20;28.05;;;16.67;;
35306;SDS011;21420;52.196;21.416;2023-01-08T06:28:46;33.10;;;18.57;;
35306;SDS011;21420;52.196;21.416;2023-01-08T06:31:12;32.30;;;18.55;;
35306;SDS011;21420;52.196;21.416;2023-01-08T06:33:38;42.67;;;20.88;;
35306;SDS011;21420;52.196;21.416;2023-01-08T06:36:04;38.78;;;20.20;;
35306;SDS011;21420;52.196;21.416;2023-01-08T06:38:32;37.17;;;19.07;;
35306;SDS011;21420;52.196;21.416;2023-01-08T06:41:02;36.65;;;20.37;;
35306;SDS011;21420;52.196;21.416;2023-01-08T06:43:31;29.42;;;17.30;;
35306;SDS011;21420;52.196;21.416;2023-01-08T06:45:59;26.75;;;16.50;;
35306;SDS011;21420;52.196;21.416;2023-01-08T06:48:25;29.40;;;15.70;;
35306;SDS011;21420;52.196;21.416;2023-01-08T06:50:52;25.45;;;15.53;;
35306;SDS011;21420;52.196;21.416;2023-01-08T06:53:18;32.40;;;17.30;;
35306;SDS011;21420;52.196;21.416;2023-01-08T06:55:45;31.40;;;15.45;;
35306;SDS011;21420;52.196;21.416;2023-01-08T06:58:11;31.35;;;16.12;;
35306;SDS011;21420;52.196;21.416;2023-01-08T07:00:37;29.60;;;16.05;;
35306;SDS011;21420;52.196;21.416;2023-01-08T07:03:04;25.80;;;15.00;;
35306;SDS011;21420;52.196;21.416;2023-01-08T07:05:30;27.20;;;14.83;;
35306;SDS011;21420;52.196;21.416;2023-01-08T07:07:57;21.23;;;14.03;;
35306;SDS011;21420;52.196;21.416;2023-01-08T07:10:23;23.35;;;14.83;;
35306;SDS011;21420;52.196;21.416;2023-01-08T07:12:50;22.07;;;14.68;;
35306;SDS011;21420;52.196;21.416;2023-01-08T07:15:16;25.75;;;14.80;;
35306;SDS011;21420;52.196;21.416;2023-01-08T07:17:43;21.80;;;14.50;;
35306;SDS011;21420;52.196;21.416;2023-01-08T07:20:09;25.65;;;15.00;;
35306;SDS011;21420;52.196;21.416;2023-01-08T07:22:36;28.70;;;14.75;;
35306;SDS011;21420;52.196;21.416;2023-01-08T07:25:02;29.32;;;14.18;;
35306;SDS011;21420;52.196;21.416;2023-01-08T07:27:29;27.27;;;16.20;;
35306;SDS011;21420;52.196;21.416;2023-01-08T07:29:57;22.32;;;14.53;;
35306;SDS011;21420;52.196;21.416;2023-01-08T07:32:23;27.67;;;15.03;;
35306;SDS011;21420;52.196;21.416;2023-01-08T07:34:50;23.75;;;14.23;;
35306;SDS011;21420;52.196;21.416;2023-01-08T07:37:18;24.65;;;16.32;;
35306;SDS011;21420;52.196;21.416;2023-01-08T07:39:44;23.10;;;14.70;;
35306;SDS011;21420;52.196;21.416;2023-01-08T07:42:11;21.17;;;13.70;;
35306;SDS011;21420;52.196;21.416;2023-01-08T07:44:37;21.65;;;14.45;;
35306;SDS011;21420;52.196;21.416;2023-01-08T07:47:03;23.95;;;14.40;;
35306;SDS011;21420;52.196;21.416;2023-01-08T07:49:29;23.02;;;13.65;;
35306;SDS011;21420;52.196;21.416;2023-01-08T07:51:56;24.23;;;13.78;;
35306;SDS011;21420;52.196;21.416;2023-01-08T07:54:22;24.80;;;14.43;;
35306;SDS011;21420;52.196;21.416;2023-01-08T07:56:48;21.57;;;13.60;;
35306;SDS011;21420;52.196;21.416;2023-01-08T07:59:14;20.55;;;12.60;;
35306;SDS011;21420;52.196;21.416;2023-01-08T08:01:40;21.68;;;14.25;;
35306;SDS011;21420;52.196;21.416;2023-01-08T08:04:07;21.87;;;14.13;;
35306;SDS011;21420;52.196;21.416;2023-01-08T08:06:33;22.73;;;14.98;;
35306;SDS011;21420;52.196;21.416;2023-01-08T08:08:59;22.32;;;14.05;;
35306;SDS011;21420;52.196;21.416;2023-01-08T08:11:25;20.55;;;13.65;;
35306;SDS011;21420;52.196;21.416;2023-01-08T08:13:51;22.27;;;14.20;;
35306;SDS011;21420;52.196;21.416;2023-01-08T08:16:18;18.07;;;13.45;;
35306;SDS011;21420;52.196;21.416;2023-01-08T08:18:44;25.12;;;14.68;;
35306;SDS011;21420;52.196;21.416;2023-01-08T08:21:10;21.97;;;14.20;;
35306;SDS011;21420;52.196;21.416;2023-01-08T08:23:37;24.70;;;14.50;;
35306;SDS011;21420;52.196;21.416;2023-01-08T08:26:03;21.20;;;12.82;;
35306;SDS011;21420;52.196;21.416;2023-01-08T08:28:30;19.87;;;13.78;;
35306;SDS011;21420;52.196;21.416;2023-01-08T08:30:56;20.60;;;12.98;;
35306;SDS011;21420;52.196;21.416;2023-01-08T08:33:22;21.20;;;13.80;;
35306;SDS011;21420;52.196;21.416;2023-01-08T08:35:48;19.90;;;13.48;;
35306;SDS011;21420;52.196;21.416;2023-01-08T08:38:15;19.25;;;13.72;;
35306;SDS011;21420;52.196;21.416;2023-01-08T08:40:42;19.62;;;14.15;;
35306;SDS011;21420;52.196;21.416;2023-01-08T08:43:08;24.57;;;14.13;;
35306;SDS011;21420;52.196;21.416;2023-01-08T08:45:35;19.90;;;13.83;;
35306;SDS011;21420;52.196;21.416;2023-01-08T08:48:04;24.40;;;16.60;;
35306;SDS011;21420;52.196;21.416;2023-01-08T08:50:31;19.32;;;13.15;;
35306;SDS011;21420;52.196;21.416;2023-01-08T08:52:58;20.68;;;13.45;;
35306;SDS011;21420;52.196;21.416;2023-01-08T08:55:25;21.87;;;13.38;;
35306;SDS011;21420;52.196;21.416;2023-01-08T08:57:53;23.32;;;15.68;;
35306;SDS011;21420;52.196;21.416;2023-01-08T09:00:19;23.65;;;14.87;;
35306;SDS011;21420;52.196;21.416;2023-01-08T09:02:45;21.80;;;14.53;;
35306;SDS011;21420;52.196;21.416;2023-01-08T09:05:15;20.55;;;14.47;;
35306;SDS011;21420;52.196;21.416;2023-01-08T09:07:41;24.27;;;15.45;;
35306;SDS011;21420;52.196;21.416;2023-01-08T09:10:07;25.27;;;15.90;;
35306;SDS011;21420;52.196;21.416;2023-01-08T09:12:34;25.40;;;16.37;;
35306;SDS011;21420;52.196;21.416;2023-01-08T09:15:00;21.75;;;15.43;;
35306;SDS011;21420;52.196;21.416;2023-01-08T09:17:26;23.70;;;16.00;;
35306;SDS011;21420;52.196;21.416;2023-01-08T09:19:52;24.30;;;15.00;;
35306;SDS011;21420;52.196;21.416;2023-01-08T09:22:19;23.57;;;14.95;;
35306;SDS011;21420;52.196;21.416;2023-01-08T09:24:45;25.72;;;15.48;;
35306;SDS011;21420;52.196;21.416;2023-01-08T09:27:12;27.52;;;16.82;;
35306;SDS011;21420;52.196;21.416;2023-01-08T09:29:38;25.00;;;15.60;;
35306;SDS011;21420;52.196;21.416;2023-01-08T09:32:05;24.80;;;16.20;;
35306;SDS011;21420;52.196;21.416;2023-01-08T09:34:32;25.00;;;16.95;;
35306;SDS011;21420;52.196;21.416;2023-01-08T09:37:00;25.17;;;16.55;;
35306;SDS011;21420;52.196;21.416;2023-01-08T09:39:27;24.25;;;15.83;;
35306;SDS011;21420;52.196;21.416;2023-01-08T09:41:53;24.05;;;16.65;;
35306;SDS011;21420;52.196;21.416;2023-01-08T09:44:22;29.60;;;16.27;;
35306;SDS011;21420;52.196;21.416;2023-01-08T09:46:52;23.42;;;15.80;;
35306;SDS011;21420;52.196;21.416;2023-01-08T09:49:21;31.20;;;18.10;;
35306;SDS011;21420;52.196;21.416;2023-01-08T09:51:55;29.40;;;19.07;;
35306;SDS011;21420;52.196;21.416;2023-01-08T09:54:22;32.67;;;20.45;;
35306;SDS011;21420;52.196;21.416;2023-01-08T09:56:50;29.23;;;17.82;;
35306;SDS011;21420;52.196;21.416;2023-01-08T09:59:18;47.03;;;26.40;;
35306;SDS011;21420;52.196;21.416;2023-01-08T10:01:44;31.57;;;17.92;;
35306;SDS011;21420;52.196;21.416;2023-01-08T10:04:16;27.35;;;17.30;;
35306;SDS011;21420;52.196;21.416;2023-01-08T10:06:53;30.68;;;19.05;;
35306;SDS011;21420;52.196;21.416;2023-01-08T10:09:29;32.30;;;20.27;;
35306;SDS011;21420;52.196;21.416;2023-01-08T10:11:58;30.80;;;19.48;;
35306;SDS011;21420;52.196;21.416;2023-01-08T10:14:28;30.20;;;17.80;;
35306;SDS011;21420;52.196;21.416;2023-01-08T10:17:04;33.70;;;22.52;;
35306;SDS011;21420;52.196;21.416;2023-01-08T10:19:33;34.53;;;22.15;;
35306;SDS011;21420;52.196;21.416;2023-01-08T10:22:00;39.42;;;25.20;;
35306;SDS011;21420;52.196;21.416;2023-01-08T10:24:33;28.67;;;17.75;;
35306;SDS011;21420;52.196;21.416;2023-01-08T10:27:07;36.33;;;23.25;;
35306;SDS011;21420;52.196;21.416;2023-01-08T10:29:41;54.95;;;34.75;;
35306;SDS011;21420;52.196;21.416;2023-01-08T10:35:01;31.27;;;23.50;;
35306;SDS011;21420;52.196;21.416;2023-01-08T10:37:33;28.35;;;16.87;;
35306;SDS011;21420;52.196;21.416;2023-01-08T10:42:57;30.55;;;20.20;;
35306;SDS011;21420;52.196;21.416;2023-01-08T10:45:34;33.53;;;21.33;;
35306;SDS011;21420;52.196;21.416;2023-01-08T10:48:01;28.77;;;20.35;;
35306;SDS011;21420;52.196;21.416;2023-01-08T10:50:32;30.02;;;17.42;;
35306;SDS011;21420;52.196;21.416;2023-01-08T10:53:00;30.50;;;18.90;;
35306;SDS011;21420;52.196;21.416;2023-01-08T10:55:33;35.75;;;20.20;;
35306;SDS011;21420;52.196;21.416;2023-01-08T11:00:38;34.95;;;20.90;;
35306;SDS011;21420;52.196;21.416;2023-01-08T11:03:06;32.88;;;22.90;;
35306;SDS011;21420;52.196;21.416;2023-01-08T11:05:38;32.85;;;22.10;;
35306;SDS011;21420;52.196;21.416;2023-01-08T11:08:06;29.02;;;19.40;;
35306;SDS011;21420;52.196;21.416;2023-01-08T11:10:39;26.90;;;16.65;;
35306;SDS011;21420;52.196;21.416;2023-01-08T11:13:05;30.65;;;20.25;;
35306;SDS011;21420;52.196;21.416;2023-01-08T11:15:37;32.13;;;21.55;;
35306;SDS011;21420;52.196;21.416;2023-01-08T11:18:27;34.27;;;22.42;;
35306;SDS011;21420;52.196;21.416;2023-01-08T11:20:47;43.73;;;26.07;;
35306;SDS011;21420;52.196;21.416;2023-01-08T11:25:56;29.60;;;18.52;;
35306;SDS011;21420;52.196;21.416;2023-01-08T11:28:28;31.02;;;20.60;;
35306;SDS011;21420;52.196;21.416;2023-01-08T11:31:07;29.60;;;19.65;;
35306;SDS011;21420;52.196;21.416;2023-01-08T11:33:39;27.62;;;18.90;;
35306;SDS011;21420;52.196;21.416;2023-01-08T11:36:10;25.45;;;18.65;;
35306;SDS011;21420;52.196;21.416;2023-01-08T11:38:45;29.60;;;18.37;;
35306;SDS011;21420;52.196;21.416;2023-01-08T11:46:58;25.10;;;18.05;;
35306;SDS011;21420;52.196;21.416;2023-01-08T11:55:28;29.00;;;19.05;;
35306;SDS011;21420;52.196;21.416;2023-01-08T12:00:27;23.80;;;16.57;;
35306;SDS011;21420;52.196;21.416;2023-01-08T12:03:20;24.60;;;18.00;;
35306;SDS011;21420;52.196;21.416;2023-01-08T12:06:10;24.85;;;18.02;;
35306;SDS011;21420;52.196;21.416;2023-01-08T12:12:00;29.60;;;19.32;;
35306;SDS011;21420;52.196;21.416;2023-01-08T12:15:06;27.87;;;18.92;;
35306;SDS011;21420;52.196;21.416;2023-01-08T12:17:55;27.58;;;17.87;;
35306;SDS011;21420;52.196;21.416;2023-01-08T12:20:52;27.98;;;19.30;;
35306;SDS011;21420;52.196;21.416;2023-01-08T12:23:46;28.02;;;18.62;;
35306;SDS011;21420;52.196;21.416;2023-01-08T12:26:37;42.03;;;25.23;;
35306;SDS011;21420;52.196;21.416;2023-01-08T12:42:42;57.00;;;30.88;;
35306;SDS011;21420;52.196;21.416;2023-01-08T12:48:05;36.98;;;22.67;;
35306;SDS011;21420;52.196;21.416;2023-01-08T12:56:02;47.93;;;29.25;;
35306;SDS011;21420;52.196;21.416;2023-01-08T12:58:42;39.05;;;24.23;;
35306;SDS011;21420;52.196;21.416;2023-01-08T13:04:07;40.35;;;24.90;;
35306;SDS011;21420;52.196;21.416;2023-01-08T13:06:36;30.85;;;21.45;;
35306;SDS011;21420;52.196;21.416;2023-01-08T13:09:03;46.98;;;30.15;;
35306;SDS011;21420;52.196;21.416;2023-01-08T13:11:31;43.08;;;27.20;;
35306;SDS011;21420;52.196;21.416;2023-01-08T13:14:09;41.48;;;25.37;;
35306;SDS011;21420;52.196;21.416;2023-01-08T13:16:39;46.68;;;29.52;;
35306;SDS011;21420;52.196;21.416;2023-01-08T13:19:18;34.58;;;22.77;;
35306;SDS011;21420;52.196;21.416;2023-01-08T13:21:54;43.02;;;28.87;;
35306;SDS011;21420;52.196;21.416;2023-01-08T13:24:30;35.52;;;23.32;;
35306;SDS011;21420;52.196;21.416;2023-01-08T13:38:04;36.75;;;23.40;;
35306;SDS011;21420;52.196;21.416;2023-01-08T13:40:37;42.38;;;25.77;;
35306;SDS011;21420;52.196;21.416;2023-01-08T13:43:29;40.17;;;24.57;;
35306;SDS011;21420;52.196;21.416;2023-01-08T13:47:45;39.10;;;24.50;;
35306;SDS011;21420;52.196;21.416;2023-01-08T13:50:15;37.30;;;24.70;;
35306;SDS011;21420;52.196;21.416;2023-01-08T13:53:04;33.90;;;22.30;;
35306;SDS011;21420;52.196;21.416;2023-01-08T13:55:34;33.10;;;21.60;;
35306;SDS011;21420;52.196;21.416;2023-01-08T13:58:07;28.90;;;19.50;;
35306;SDS011;21420;52.196;21.416;2023-01-08T14:00:44;29.10;;;20.30;;
35306;SDS011;21420;52.196;21.416;2023-01-08T14:03:24;31.40;;;20.60;;
35306;SDS011;21420;52.196;21.416;2023-01-08T14:11:23;35.30;;;23.10;;
35306;SDS011;21420;52.196;21.416;2023-01-08T14:13:55;31.20;;;21.10;;
35306;SDS011;21420;52.196;21.416;2023-01-08T14:16:23;31.90;;;20.90;;
35306;SDS011;21420;52.196;21.416;2023-01-08T14:18:51;28.90;;;19.60;;
35306;SDS011;21420;52.196;21.416;2023-01-08T14:21:23;41.80;;;27.90;;
35306;SDS011;21420;52.196;21.416;2023-01-08T14:23:50;29.90;;;21.70;;
35306;SDS011;21420;52.196;21.416;2023-01-08T14:26:22;33.30;;;21.00;;
35306;SDS011;21420;52.196;21.416;2023-01-08T14:29:01;37.40;;;24.30;;
35306;SDS011;21420;52.196;21.416;2023-01-08T14:31:44;38.90;;;23.70;;
35306;SDS011;21420;52.196;21.416;2023-01-08T14:34:19;36.20;;;23.60;;
35306;SDS011;21420;52.196;21.416;2023-01-08T14:36:49;33.80;;;23.00;;
35306;SDS011;21420;52.196;21.416;2023-01-08T14:41:49;37.70;;;25.20;;
35306;SDS011;21420;52.196;21.416;2023-01-08T14:44:39;36.50;;;24.60;;
35306;SDS011;21420;52.196;21.416;2023-01-08T14:47:16;34.10;;;24.20;;
35306;SDS011;21420;52.196;21.416;2023-01-08T14:49:48;46.00;;;29.50;;
35306;SDS011;21420;52.196;21.416;2023-01-08T14:52:18;34.40;;;23.50;;
35306;SDS011;21420;52.196;21.416;2023-01-08T14:54:47;43.00;;;28.90;;
35306;SDS011;21420;52.196;21.416;2023-01-08T14:57:19;40.90;;;27.10;;
35306;SDS011;21420;52.196;21.416;2023-01-08T14:59:56;33.30;;;23.50;;
35306;SDS011;21420;52.196;21.416;2023-01-08T15:02:26;33.70;;;24.10;;
35306;SDS011;21420;52.196;21.416;2023-01-08T15:05:16;31.70;;;22.50;;
35306;SDS011;21420;52.196;21.416;2023-01-08T15:08:02;39.90;;;25.00;;
35306;SDS011;21420;52.196;21.416;2023-01-08T15:11:52;36.40;;;24.00;;
35306;SDS011;21420;52.196;21.416;2023-01-08T15:13:45;34.10;;;23.50;;
35306;SDS011;21420;52.196;21.416;2023-01-08T15:19:03;32.70;;;22.20;;
35306;SDS011;21420;52.196;21.416;2023-01-08T15:21:31;31.90;;;21.90;;
35306;SDS011;21420;52.196;21.416;2023-01-08T15:24:00;33.80;;;21.60;;
35306;SDS011;21420;52.196;21.416;2023-01-08T15:26:29;30.30;;;22.00;;
35306;SDS011;21420;52.196;21.416;2023-01-08T15:29:04;30.20;;;21.50;;
35306;SDS011;21420;52.196;21.416;2023-01-08T15:31:43;29.00;;;21.30;;
35306;SDS011;21420;52.196;21.416;2023-01-08T15:34:14;31.10;;;22.50;;
35306;SDS011;21420;52.196;21.416;2023-01-08T15:36:45;36.80;;;22.50;;
35306;SDS011;21420;52.196;21.416;2023-01-08T15:39:12;33.10;;;22.50;;
35306;SDS011;21420;52.196;21.416;2023-01-08T15:41:40;32.00;;;21.60;;
35306;SDS011;21420;52.196;21.416;2023-01-08T15:44:26;35.40;;;24.80;;
35306;SDS011;21420;52.196;21.416;2023-01-08T15:46:53;37.90;;;25.20;;
35306;SDS011;21420;52.196;21.416;2023-01-08T15:49:20;41.10;;;28.10;;
35306;SDS011;21420;52.196;21.416;2023-01-08T15:51:48;32.50;;;22.30;;
35306;SDS011;21420;52.196;21.416;2023-01-08T15:54:18;30.90;;;21.10;;
35306;SDS011;21420;52.196;21.416;2023-01-08T15:56:49;33.00;;;22.40;;
35306;SDS011;21420;52.196;21.416;2023-01-08T15:59:16;35.10;;;24.20;;
35306;SDS011;21420;52.196;21.416;2023-01-08T16:01:43;34.90;;;23.20;;
35306;SDS011;21420;52.196;21.416;2023-01-08T16:04:11;32.90;;;22.70;;
35306;SDS011;21420;52.196;21.416;2023-01-08T16:06:38;31.90;;;22.20;;
35306;SDS011;21420;52.196;21.416;2023-01-08T16:09:05;32.00;;;22.30;;
35306;SDS011;21420;52.196;21.416;2023-01-08T16:11:32;34.00;;;23.40;;
35306;SDS011;21420;52.196;21.416;2023-01-08T16:13:59;34.30;;;23.60;;